Welcome to Northern Hawkes Bay. New Zealand.
PWS Header
      nz Flag



Hit Counter


W3C Valid W3C Valid logo


    Wairoa

Select any of the Stations below to visit their websites.










Historic Data from Weather Underground
Select the location of interest below. Wairoa is the default. Please have patience, this Data is slow to load in.
Northern Hawkes Bay Historical Data
 
Daily Summary for February 24, 2019 Units:  Metric    English   Both
« Previous Day
Next Day »
Daily Weekly Monthly Yearly Custom
  Current: High: Low: Average:
Temperature: 14.4 °C 16.0 °C 14.1 °C 15 °C
Dew Point: 10.2 °C 15.8 °C 10.2 °C 12.5 °C
Humidity: 76% 99% 76% 85%
Wind Speed: 7.2km/h 11.1km/h 2.6km/h 7km/h
Wind Gust: 13.4km/h 19.5km/h - -
WindNNW - - NW
Pressure: 996.0 hPa 998.2 hPa 995.8 hPa -
Precipitation: 0.0 mm      
Historical Graphs
 
 
Tabular Data for February 24, 2019
Time Temperature Dew Point Pressure Wind Wind Speed Wind Gust Humidity Rainfall Rate (Hourly) solar
00:04 16.0 °C 15.7 °C 997.9 hPa North 6.1 km/h 13.4 km/h 98% 0.0 mm 0.00 W/m2
00:09 16.0 °C 15.7 °C 997.9 hPa North 5.0 km/h 11.1 km/h 98% 0.0 mm 0.00 W/m2
00:14 15.9 °C 15.8 °C 998.0 hPa NNW 5.0 km/h 11.1 km/h 99% 0.0 mm 0.00 W/m2
00:19 15.9 °C 15.8 °C 998.1 hPa NNW 7.2 km/h 13.4 km/h 99% 0.0 mm 0.00 W/m2
00:24 15.8 °C 15.7 °C 998.1 hPa NNW 6.1 km/h 13.4 km/h 99% 0.0 mm 0.00 W/m2
00:29 15.7 °C 15.6 °C 998.2 hPa NNW 6.1 km/h 11.1 km/h 99% 0.0 mm 0.00 W/m2
00:34 15.7 °C 15.6 °C 998.2 hPa NNW 6.1 km/h 9.7 km/h 99% 0.0 mm 0.00 W/m2
00:39 15.6 °C 15.4 °C 998.2 hPa North 5.0 km/h 11.1 km/h 99% 0.0 mm 0.00 W/m2
00:44 15.6 °C 15.4 °C 998.1 hPa NNW 6.1 km/h 11.1 km/h 99% 0.0 mm 0.00 W/m2
00:49 15.5 °C 15.3 °C 998.1 hPa NNW 9.7 km/h 14.8 km/h 99% 0.0 mm 0.00 W/m2
00:54 15.5 °C 15.3 °C 997.8 hPa North 6.1 km/h 14.8 km/h 99% 0.0 mm 0.00 W/m2
00:59 15.5 °C 15.3 °C 997.5 hPa North 5.0 km/h 12.2 km/h 99% 0.0 mm 0.00 W/m2
01:04 15.5 °C 15.3 °C 997.6 hPa North 5.0 km/h 12.2 km/h 99% 0.0 mm 0.00 W/m2
01:09 15.4 °C 15.3 °C 997.5 hPa North 5.0 km/h 12.2 km/h 99% 0.0 mm 0.00 W/m2
01:14 15.3 °C 15.2 °C 997.2 hPa North 5.0 km/h 11.1 km/h 99% 0.0 mm 0.00 W/m2
01:19 15.3 °C 15.0 °C 997.2 hPa North 8.7 km/h 13.4 km/h 98% 0.0 mm 0.00 W/m2
01:24 15.3 °C 14.5 °C 997.1 hPa North 7.2 km/h 13.4 km/h 95% 0.0 mm 0.00 W/m2
01:29 15.3 °C 14.2 °C 997.0 hPa North 6.1 km/h 12.2 km/h 93% 0.0 mm 0.00 W/m2
01:34 15.3 °C 13.8 °C 996.9 hPa North 5.0 km/h 12.2 km/h 91% 0.0 mm 0.00 W/m2
01:39 15.2 °C 13.6 °C 997.1 hPa North 8.7 km/h 14.8 km/h 90% 0.0 mm 0.00 W/m2
01:44 15.2 °C 13.2 °C 996.9 hPa North 7.2 km/h 14.8 km/h 88% 0.0 mm 0.00 W/m2
01:49 15.1 °C 12.9 °C 997.0 hPa NNW 8.7 km/h 14.8 km/h 87% 0.0 mm 0.00 W/m2
01:54 15.1 °C 12.8 °C 997.0 hPa NNW 7.2 km/h 14.8 km/h 86% 0.0 mm 0.00 W/m2
01:59 15.2 °C 12.5 °C 997.0 hPa NNW 6.1 km/h 15.8 km/h 84% 0.0 mm 0.00 W/m2
02:04 15.2 °C 12.5 °C 996.8 hPa NNW 6.1 km/h 15.8 km/h 84% 0.0 mm 0.00 W/m2
02:09 15.1 °C 12.2 °C 996.8 hPa NNW 7.2 km/h 15.8 km/h 83% 0.0 mm 0.00 W/m2
02:14 15.0 °C 12.2 °C 996.8 hPa NNW 9.7 km/h 13.4 km/h 83% 0.0 mm 0.00 W/m2
02:19 15.0 °C 12.2 °C 996.9 hPa NNW 6.1 km/h 17.2 km/h 83% 0.0 mm 0.00 W/m2
02:24 14.9 °C 12.1 °C 996.8 hPa NNW 7.2 km/h 17.2 km/h 83% 0.0 mm 0.00 W/m2
02:29 14.9 °C 12.1 °C 996.8 hPa North 9.7 km/h 15.8 km/h 83% 0.0 mm 0.00 W/m2
02:34 14.9 °C 11.8 °C 996.7 hPa NNW 7.2 km/h 15.8 km/h 82% 0.0 mm 0.00 W/m2
02:39 14.9 °C 11.8 °C 996.8 hPa NNW 8.7 km/h 13.4 km/h 82% 0.0 mm 0.00 W/m2
02:44 14.9 °C 11.8 °C 996.7 hPa NNW 8.7 km/h 15.8 km/h 82% 0.0 mm 0.00 W/m2
02:49 14.9 °C 11.8 °C 996.6 hPa North 9.7 km/h 19.5 km/h 82% 0.0 mm 0.00 W/m2
02:54 14.8 °C 11.8 °C 996.9 hPa North 8.7 km/h 19.5 km/h 82% 0.0 mm 0.00 W/m2
02:59 14.6 °C 11.6 °C 996.8 hPa NNW 8.7 km/h 13.4 km/h 82% 0.0 mm 0.00 W/m2
03:04 14.6 °C 11.6 °C 996.7 hPa NNW 8.7 km/h 14.8 km/h 82% 0.0 mm 0.00 W/m2
03:09 14.8 °C 11.6 °C 996.6 hPa NNW 9.7 km/h 15.8 km/h 81% 0.0 mm 0.00 W/m2
03:14 14.8 °C 11.4 °C 996.5 hPa NNW 9.7 km/h 15.8 km/h 80% 0.0 mm 0.00 W/m2
03:19 14.9 °C 11.5 °C 996.6 hPa NNW 8.7 km/h 14.8 km/h 80% 0.0 mm 0.00 W/m2
03:24 15.1 °C 11.3 °C 996.5 hPa NNW 8.7 km/h 14.8 km/h 78% 0.0 mm 0.00 W/m2
03:29 15.1 °C 11.3 °C 996.7 hPa NNW 8.7 km/h 15.8 km/h 78% 0.0 mm 0.00 W/m2
03:34 15.2 °C 11.2 °C 996.6 hPa NNW 11.1 km/h 15.8 km/h 77% 0.0 mm 0.00 W/m2
03:39 15.2 °C 11.2 °C 996.5 hPa North 7.2 km/h 14.8 km/h 77% 0.0 mm 0.00 W/m2
03:42 15.2 °C 11.2 °C 996.5 hPa North 7.2 km/h 14.8 km/h 77% 0.0 mm 0.00 W/m2
03:59 14.9 °C 11.5 °C 996.4 hPa NNW 9.7 km/h 15.8 km/h 80% 0.0 mm 0.00 W/m2
04:04 14.9 °C 11.7 °C 996.2 hPa North 7.2 km/h 15.8 km/h 81% 0.0 mm 0.00 W/m2
04:09 14.8 °C 11.6 °C 996.0 hPa North 8.7 km/h 14.8 km/h 81% 0.0 mm 0.00 W/m2
04:14 14.8 °C 11.8 °C 996.2 hPa North 8.7 km/h 14.8 km/h 82% 0.0 mm 0.00 W/m2
04:19 14.8 °C 11.8 °C 996.2 hPa NNW 8.7 km/h 13.4 km/h 82% 0.0 mm 0.00 W/m2
04:24 14.8 °C 11.8 °C 996.1 hPa NNW 6.1 km/h 15.8 km/h 82% 0.0 mm 0.00 W/m2
04:29 14.8 °C 11.8 °C 995.9 hPa NNW 8.7 km/h 15.8 km/h 82% 0.0 mm 0.00 W/m2
04:34 14.8 °C 11.6 °C 996.1 hPa NNW 7.2 km/h 12.2 km/h 81% 0.0 mm 0.00 W/m2
04:39 14.8 °C 11.4 °C 996.1 hPa NNW 7.2 km/h 14.8 km/h 80% 0.0 mm 0.00 W/m2
04:44 14.8 °C 11.4 °C 996.1 hPa North 11.1 km/h 15.8 km/h 80% 0.0 mm 0.00 W/m2
04:49 14.9 °C 11.3 °C 996.0 hPa NNW 7.2 km/h 15.8 km/h 79% 0.0 mm 0.00 W/m2
04:54 15.0 °C 11.0 °C 996.0 hPa North 8.7 km/h 17.2 km/h 77% 0.0 mm 0.00 W/m2
04:59 15.1 °C 11.1 °C 996.1 hPa North 8.7 km/h 17.2 km/h 77% 0.0 mm 0.00 W/m2
05:04 15.0 °C 11.0 °C 996.2 hPa NNW 2.6 km/h 13.4 km/h 77% 0.0 mm 0.00 W/m2
05:09 14.9 °C 11.1 °C 996.1 hPa NNW 2.6 km/h 11.1 km/h 78% 0.0 mm 0.00 W/m2
05:14 14.8 °C 11.2 °C 996.2 hPa NNW 5.0 km/h 8.7 km/h 79% 0.0 mm 0.00 W/m2
05:19 14.6 °C 11.0 °C 996.0 hPa NNW 2.6 km/h 7.2 km/h 79% 0.0 mm 0.00 W/m2
05:24 14.6 °C 11.0 °C 996.0 hPa NW 3.5 km/h 7.2 km/h 79% 0.0 mm 0.00 W/m2
05:29 14.4 °C 11.0 °C 996.1 hPa NW 3.5 km/h 7.2 km/h 80% 0.0 mm 0.00 W/m2
05:34 14.2 °C 11.0 °C 996.0 hPa NNW 3.5 km/h 9.7 km/h 81% 0.0 mm 0.00 W/m2
05:39 14.1 °C 10.9 °C 995.9 hPa NNW 3.5 km/h 9.7 km/h 81% 0.0 mm 0.00 W/m2
05:44 14.1 °C 10.9 °C 995.8 hPa NNW 5.0 km/h 9.7 km/h 81% 0.0 mm 0.00 W/m2
05:49 14.2 °C 10.8 °C 995.9 hPa NNW 7.2 km/h 11.1 km/h 80% 0.0 mm 0.00 W/m2
05:54 14.3 °C 10.7 °C 996.0 hPa NNW 7.2 km/h 13.4 km/h 79% 0.0 mm 0.00 W/m2
05:59 14.3 °C 10.5 °C 995.8 hPa NNW 8.7 km/h 13.4 km/h 78% 0.0 mm 0.00 W/m2
06:04 14.4 °C 10.4 °C 995.9 hPa NNW 7.2 km/h 13.4 km/h 77% 0.0 mm 0.00 W/m2
06:09 14.5 °C 10.5 °C 996.0 hPa NNW 6.1 km/h 13.4 km/h 77% 0.0 mm 0.00 W/m2
06:14 14.4 °C 10.2 °C 996.0 hPa NNW 7.2 km/h 13.4 km/h 76% 0.0 mm 0.00 W/m2
Northern Hawkes Bay. New Zealand Historic Data
Compliments of Weather Underground - 2 mb